Time;durP1;ratioP1;P1;durP2;ratioP2;P2;SDS_P1;SDS_P2;PMS_P1;PMS_P2;Temp;Humidity;BMP_temperature;BMP_pressure;BME280_temperature;BME280_humidity;BME280_pressure;Samples;Min_cycle;Max_cycle;Signal;HPM_P1;HPM_P2
2021/06/26 00:00:30;;;;;;;23.30;20.65;;;;;;;;;;2070934;28;20172;-58
2021/06/26 00:01:30;;;;;;;22.10;19.75;;;;;;;;;;2064953;28;20638;-58
2021/06/26 00:02:30;;;;;;;22.35;20.00;;;;;;;;;;2073047;28;20173;-61
2021/06/26 00:03:31;;;;;;;22.48;20.15;;;;;;;;;;2066976;28;20193;-59
2021/06/26 00:04:31;;;;;;;28.73;20.70;;;;;;;;;;2072501;28;20181;-61
2021/06/26 00:05:31;;;;;;;23.10;19.83;;;;;;;;;;2073462;28;20185;-57
2021/06/26 00:06:33;;;;;;;24.02;20.05;;;;;;;;;;2068234;28;20193;-59
2021/06/26 00:07:33;;;;;;;21.25;19.02;;;;;;;;;;2071473;28;20177;-58
2021/06/26 00:08:34;;;;;;;22.70;19.10;;;;;;;;;;2067523;28;20642;-53
2021/06/26 00:09:34;;;;;;;22.65;19.77;;;;;;;;;;2072030;28;20272;-59
2021/06/26 00:10:34;;;;;;;30.52;22.08;;;;;;;;;;2067475;28;20208;-60
2021/06/26 00:11:34;;;;;;;25.90;23.10;;;;;;;;;;2072481;28;20189;-61
2021/06/26 00:12:35;;;;;;;24.05;20.50;;;;;;;;;;2067116;28;20173;-58
2021/06/26 00:13:35;;;;;;;23.98;21.15;;;;;;;;;;2073131;28;20607;-57
2021/06/26 00:14:35;;;;;;;25.13;22.48;;;;;;;;;;2066894;28;20268;-58
2021/06/26 00:15:36;;;;;;;22.67;20.20;;;;;;;;;;2072666;28;20219;-60
2021/06/26 00:16:36;;;;;;;24.67;21.65;;;;;;;;;;2066484;28;20190;-59
2021/06/26 00:17:36;;;;;;;24.73;21.08;;;;;;;;;;2072473;28;20189;-59
2021/06/26 00:18:36;;;;;;;23.40;20.92;;;;;;;;;;2064658;28;20182;-59
2021/06/26 00:19:37;;;;;;;26.60;23.52;;;;;;;;;;2058410;28;20170;-60
2021/06/26 00:20:37;;;;;;;22.27;20.05;;;;;;;;;;2065571;28;20182;-60
2021/06/26 00:21:37;;;;;;;21.42;19.20;;;;;;;;;;2071615;28;20173;-59
2021/06/26 00:22:38;;;;;;;26.15;21.58;;;;;;;;;;2063574;28;20623;-60
2021/06/26 00:23:38;;;;;;;24.85;21.10;;;;;;;;;;2072921;28;20189;-59
2021/06/26 00:24:38;;;;;;;24.58;21.67;;;;;;;;;;2066381;28;20197;-63
2021/06/26 00:25:39;;;;;;;21.95;19.75;;;;;;;;;;2073704;28;20179;-60
2021/06/26 00:26:39;;;;;;;21.70;19.48;;;;;;;;;;2066242;28;20197;-59
2021/06/26 00:27:40;;;;;;;24.80;20.58;;;;;;;;;;2073987;28;20169;-60
2021/06/26 00:28:40;;;;;;;24.05;21.25;;;;;;;;;;2065459;28;20192;-57
2021/06/26 00:29:40;;;;;;;22.65;19.75;;;;;;;;;;2073472;28;20185;-59
2021/06/26 00:30:41;;;;;;;24.88;19.70;;;;;;;;;;2065569;28;20189;-60
2021/06/26 00:31:41;;;;;;;24.90;20.20;;;;;;;;;;2073038;28;20661;-58
2021/06/26 00:32:42;;;;;;;22.40;20.10;;;;;;;;;;2060298;28;20213;-59
2021/06/26 00:33:42;;;;;;;25.02;20.35;;;;;;;;;;2071755;28;20356;-56
2021/06/26 00:34:42;;;;;;;24.17;20.13;;;;;;;;;;2066253;28;20198;-57
2021/06/26 00:35:43;;;;;;;23.73;21.02;;;;;;;;;;2073678;28;20842;-53
2021/06/26 00:36:43;;;;;;;23.52;20.17;;;;;;;;;;2065049;28;20240;-59
2021/06/26 00:37:43;;;;;;;24.17;20.98;;;;;;;;;;2073446;28;20544;-58
2021/06/26 00:38:43;;;;;;;24.25;19.88;;;;;;;;;;2065261;28;20328;-56
2021/06/26 00:39:44;;;;;;;25.02;20.85;;;;;;;;;;2073633;28;20204;-59
2021/06/26 00:40:44;;;;;;;23.10;20.13;;;;;;;;;;2065721;28;20531;-59
2021/06/26 00:41:44;;;;;;;22.67;19.85;;;;;;;;;;2064685;28;20608;-60
2021/06/26 00:42:45;;;;;;;23.42;20.88;;;;;;;;;;2058130;28;20218;-57
2021/06/26 00:43:45;;;;;;;27.20;20.38;;;;;;;;;;2072483;28;20196;-60
2021/06/26 00:44:45;;;;;;;23.98;20.75;;;;;;;;;;2074178;28;20246;-59
2021/06/26 00:45:45;;;;;;;23.45;19.65;;;;;;;;;;2064427;28;20272;-58
2021/06/26 00:46:46;;;;;;;25.23;19.95;;;;;;;;;;2073407;28;20211;-60
2021/06/26 00:47:46;;;;;;;25.17;20.38;;;;;;;;;;2063954;28;20202;-59
2021/06/26 00:48:47;;;;;;;21.92;19.50;;;;;;;;;;2066086;28;20201;-58
2021/06/26 00:49:47;;;;;;;21.92;19.65;;;;;;;;;;2068256;28;20248;-59
2021/06/26 00:50:47;;;;;;;23.85;20.77;;;;;;;;;;2073850;28;20634;-58
2021/06/26 00:51:47;;;;;;;23.73;20.33;;;;;;;;;;2062254;28;20315;-60
2021/06/26 00:52:48;;;;;;;24.48;21.30;;;;;;;;;;2057299;28;20193;-60
2021/06/26 00:53:48;;;;;;;24.27;19.92;;;;;;;;;;2064866;28;20737;-59
2021/06/26 00:54:49;;;;;;;23.08;20.60;;;;;;;;;;2065807;28;20193;-60
2021/06/26 00:55:52;;;;;;;25.30;20.27;;;;;;;;;;2072869;28;20222;-59
2021/06/26 00:56:53;;;;;;;25.70;21.42;;;;;;;;;;2065924;28;20209;-59
2021/06/26 00:57:56;;;;;;;21.58;19.27;;;;;;;;;;2064593;28;20194;-59
2021/06/26 00:58:57;;;;;;;24.80;20.92;;;;;;;;;;2071541;28;20164;-59
2021/06/26 00:59:57;;;;;;;22.88;20.55;;;;;;;;;;2058776;28;20577;-59
2021/06/26 01:00:57;;;;;;;22.15;19.35;;;;;;;;;;2068184;28;20177;-58
2021/06/26 01:01:58;;;;;;;23.08;20.67;;;;;;;;;;2071458;28;20171;-59
2021/06/26 01:02:58;;;;;;;22.02;19.17;;;;;;;;;;2062050;28;20202;-58
2021/06/26 01:03:59;;;;;;;22.90;20.00;;;;;;;;;;2071302;28;20539;-56
2021/06/26 01:04:59;;;;;;;22.45;19.42;;;;;;;;;;2061348;28;20178;-59
2021/06/26 01:05:59;;;;;;;25.23;20.30;;;;;;;;;;2071123;28;20185;-58
2021/06/26 01:06:59;;;;;;;25.67;23.00;;;;;;;;;;2068094;28;20201;-60
2021/06/26 01:08:00;;;;;;;25.30;21.95;;;;;;;;;;2070884;28;20197;-60
2021/06/26 01:09:00;;;;;;;27.13;23.42;;;;;;;;;;2068261;28;20181;-59
2021/06/26 01:10:00;;;;;;;22.42;20.15;;;;;;;;;;2071822;28;20209;-60
2021/06/26 01:11:01;;;;;;;26.40;21.15;;;;;;;;;;2071729;28;20691;-60
2021/06/26 01:12:02;;;;;;;26.80;23.05;;;;;;;;;;2067462;28;20204;-60
2021/06/26 01:13:02;;;;;;;23.05;20.60;;;;;;;;;;2071214;28;20211;-60
2021/06/26 01:14:03;;;;;;;25.92;23.23;;;;;;;;;;2065538;28;20584;-59
2021/06/26 01:15:04;;;;;;;25.48;22.67;;;;;;;;;;2067918;28;20169;-59
2021/06/26 01:16:05;;;;;;;22.42;20.05;;;;;;;;;;2070428;28;20276;-59
2021/06/26 01:17:06;;;;;;;22.40;20.10;;;;;;;;;;2068101;28;20176;-58
2021/06/26 01:18:06;;;;;;;23.52;20.70;;;;;;;;;;2067828;28;20185;-60
2021/06/26 01:19:07;;;;;;;24.67;21.85;;;;;;;;;;2064051;28;20169;-59
2021/06/26 01:20:09;;;;;;;24.95;21.08;;;;;;;;;;2070919;28;20166;-60
2021/06/26 01:21:09;;;;;;;23.08;20.55;;;;;;;;;;2068028;28;20219;-57
2021/06/26 01:22:11;;;;;;;22.20;19.83;;;;;;;;;;2066994;28;20182;-59
2021/06/26 01:23:13;;;;;;;27.70;21.35;;;;;;;;;;2064374;28;20727;-61
2021/06/26 01:24:13;;;;;;;25.65;21.73;;;;;;;;;;2069441;28;20194;-59
2021/06/26 01:25:15;;;;;;;24.15;21.60;;;;;;;;;;2068851;28;20184;-59
2021/06/26 01:26:16;;;;;;;23.90;21.05;;;;;;;;;;2072841;28;20650;-59
2021/06/26 01:27:17;;;;;;;28.10;21.60;;;;;;;;;;2068873;28;20184;-60
2021/06/26 01:28:18;;;;;;;26.83;21.70;;;;;;;;;;2069438;28;20185;-60
2021/06/26 01:29:18;;;;;;;25.95;20.10;;;;;;;;;;2068744;28;20177;-60
2021/06/26 01:30:22;;;;;;;25.63;21.27;;;;;;;;;;2069450;28;20169;-58
2021/06/26 01:31:22;;;;;;;25.40;20.38;;;;;;;;;;2068008;28;20189;-59
2021/06/26 01:32:22;;;;;;;21.85;19.55;;;;;;;;;;2068226;28;20724;-58
2021/06/26 01:33:22;;;;;;;27.13;22.58;;;;;;;;;;2068101;28;20328;-59
2021/06/26 01:34:23;;;;;;;24.48;21.75;;;;;;;;;;2067789;28;20637;-60
2021/06/26 01:35:23;;;;;;;23.52;20.50;;;;;;;;;;2067209;28;20304;-59
2021/06/26 01:36:23;;;;;;;24.00;21.02;;;;;;;;;;2067400;28;20563;-59
2021/06/26 01:37:24;;;;;;;23.15;20.67;;;;;;;;;;2067312;28;20189;-61
2021/06/26 01:38:24;;;;;;;22.42;20.08;;;;;;;;;;2068050;28;20279;-59
2021/06/26 01:39:24;;;;;;;23.48;20.55;;;;;;;;;;2066733;28;20172;-59
2021/06/26 01:40:26;;;;;;;25.33;22.00;;;;;;;;;;2068212;28;20165;-60
2021/06/26 01:41:31;;;;;;;23.38;20.92;;;;;;;;;;2065124;28;20209;-59
2021/06/26 01:42:31;;;;;;;22.65;20.25;;;;;;;;;;2069708;28;20193;-59
2021/06/26 01:43:32;;;;;;;23.05;20.45;;;;;;;;;;2063143;28;20268;-60
2021/06/26 01:44:32;;;;;;;24.75;20.77;;;;;;;;;;2069148;28;20673;-58
2021/06/26 01:45:32;;;;;;;24.17;21.50;;;;;;;;;;2062874;28;20178;-59
2021/06/26 01:46:33;;;;;;;28.42;21.00;;;;;;;;;;2069750;28;20169;-60
2021/06/26 01:47:33;;;;;;;24.40;20.73;;;;;;;;;;2062220;28;20233;-60
2021/06/26 01:48:34;;;;;;;24.90;20.65;;;;;;;;;;2070720;28;20555;-60
2021/06/26 01:49:36;;;;;;;25.20;22.30;;;;;;;;;;2066788;28;20247;-59
2021/06/26 01:50:36;;;;;;;23.58;21.02;;;;;;;;;;2065403;28;20170;-57
2021/06/26 01:51:37;;;;;;;22.48;20.02;;;;;;;;;;2065070;28;20178;-66
2021/06/26 01:52:37;;;;;;;25.85;20.75;;;;;;;;;;2065390;28;20184;-60
2021/06/26 01:53:37;;;;;;;24.30;21.58;;;;;;;;;;2065829;28;20252;-58
2021/06/26 01:54:38;;;;;;;23.52;21.02;;;;;;;;;;2065965;28;20650;-59
2021/06/26 01:55:38;;;;;;;23.80;21.27;;;;;;;;;;2065753;28;20205;-60
2021/06/26 01:56:38;;;;;;;26.63;21.95;;;;;;;;;;2065960;28;20165;-59
2021/06/26 01:57:40;;;;;;;23.17;20.77;;;;;;;;;;2065851;28;20693;-59
2021/06/26 01:58:40;;;;;;;23.20;20.75;;;;;;;;;;2065749;28;20602;-58
2021/06/26 01:59:40;;;;;;;25.75;20.48;;;;;;;;;;2065535;28;20170;-57
2021/06/26 02:00:40;;;;;;;25.05;20.88;;;;;;;;;;2065742;28;20257;-61
2021/06/26 02:01:42;;;;;;;24.13;21.10;;;;;;;;;;2064514;28;20176;-58
2021/06/26 02:02:42;;;;;;;22.42;20.02;;;;;;;;;;2064966;28;20186;-58
2021/06/26 02:03:43;;;;;;;23.05;20.58;;;;;;;;;;2065722;28;20184;-59
2021/06/26 02:04:48;;;;;;;26.52;21.40;;;;;;;;;;2064993;28;20173;-59
2021/06/26 02:05:48;;;;;;;23.15;20.58;;;;;;;;;;2065009;28;20673;-59
2021/06/26 02:06:48;;;;;;;25.65;20.92;;;;;;;;;;2065517;28;20552;-61
2021/06/26 02:07:49;;;;;;;25.00;20.40;;;;;;;;;;2064873;28;20192;-58
2021/06/26 02:08:49;;;;;;;23.00;20.52;;;;;;;;;;2065032;28;20257;-59
2021/06/26 02:09:49;;;;;;;22.65;20.27;;;;;;;;;;2065449;28;20260;-57
2021/06/26 02:10:49;;;;;;;23.40;20.52;;;;;;;;;;2065438;28;20182;-58
2021/06/26 02:11:50;;;;;;;22.40;19.83;;;;;;;;;;2064414;28;20193;-60
2021/06/26 02:12:50;;;;;;;24.15;21.35;;;;;;;;;;2065000;28;20616;-59
2021/06/26 02:13:50;;;;;;;24.00;21.50;;;;;;;;;;2064597;28;20249;-57
2021/06/26 02:14:53;;;;;;;23.38;20.88;;;;;;;;;;2064737;28;20236;-59
2021/06/26 02:15:53;;;;;;;24.17;21.45;;;;;;;;;;2064651;28;20193;-57
2021/06/26 02:16:53;;;;;;;23.58;21.08;;;;;;;;;;2064816;28;20638;-59
2021/06/26 02:17:54;;;;;;;23.65;21.08;;;;;;;;;;2063971;28;20850;-57
2021/06/26 02:18:54;;;;;;;25.13;21.35;;;;;;;;;;2056476;28;20209;-60
2021/06/26 02:19:54;;;;;;;23.85;19.80;;;;;;;;;;2061687;28;20202;-58
2021/06/26 02:20:55;;;;;;;25.77;21.10;;;;;;;;;;2058677;28;20166;-57
2021/06/26 02:21:55;;;;;;;23.65;20.83;;;;;;;;;;2069991;28;20177;-58
2021/06/26 02:22:55;;;;;;;22.08;19.85;;;;;;;;;;2071017;28;20180;-59
2021/06/26 02:23:55;;;;;;;25.08;20.00;;;;;;;;;;2066016;28;20213;-54
2021/06/26 02:24:56;;;;;;;23.63;20.85;;;;;;;;;;2070950;28;20189;-58
2021/06/26 02:25:56;;;;;;;24.23;21.52;;;;;;;;;;2066130;28;20174;-58
2021/06/26 02:26:56;;;;;;;23.48;20.73;;;;;;;;;;2070718;28;20200;-58
2021/06/26 02:27:56;;;;;;;22.77;20.40;;;;;;;;;;2066133;28;20260;-58
2021/06/26 02:28:57;;;;;;;22.42;20.13;;;;;;;;;;2070728;28;20195;-58
2021/06/26 02:29:57;;;;;;;24.08;21.23;;;;;;;;;;2063389;28;20178;-59
2021/06/26 02:30:57;;;;;;;22.33;20.13;;;;;;;;;;2069987;28;20229;-56
2021/06/26 02:31:57;;;;;;;24.15;21.45;;;;;;;;;;2061936;28;20193;-55
2021/06/26 02:32:58;;;;;;;22.85;20.40;;;;;;;;;;2070589;28;20180;-58
2021/06/26 02:33:58;;;;;;;23.23;20.55;;;;;;;;;;2059434;28;20221;-58
2021/06/26 02:34:58;;;;;;;26.27;21.30;;;;;;;;;;2057585;28;20178;-57
2021/06/26 02:35:58;;;;;;;23.00;20.60;;;;;;;;;;2058694;28;20655;-58
2021/06/26 02:36:59;;;;;;;24.08;21.40;;;;;;;;;;2066308;28;20526;-58
2021/06/26 02:37:59;;;;;;;26.05;21.10;;;;;;;;;;2068351;28;20177;-56
2021/06/26 02:38:59;;;;;;;23.42;20.83;;;;;;;;;;2061235;28;20250;-58
2021/06/26 02:40:00;;;;;;;26.20;20.77;;;;;;;;;;2071356;28;20546;-59
2021/06/26 02:41:00;;;;;;;26.70;21.05;;;;;;;;;;2071013;28;20542;-59
2021/06/26 02:42:00;;;;;;;23.95;20.27;;;;;;;;;;2066683;28;20169;-58
2021/06/26 02:43:01;;;;;;;24.13;20.98;;;;;;;;;;2070272;28;20197;-59
2021/06/26 02:44:01;;;;;;;22.90;20.50;;;;;;;;;;2070809;28;20176;-59
2021/06/26 02:45:01;;;;;;;24.45;20.83;;;;;;;;;;2066627;28;20173;-60
2021/06/26 02:46:02;;;;;;;25.50;21.52;;;;;;;;;;2068972;28;20738;-59
2021/06/26 02:47:02;;;;;;;28.10;22.10;;;;;;;;;;2070058;28;20239;-58
2021/06/26 02:48:02;;;;;;;22.75;19.35;;;;;;;;;;2064950;28;20193;-59
2021/06/26 02:49:03;;;;;;;23.40;20.92;;;;;;;;;;2069684;28;20180;-60
2021/06/26 02:50:04;;;;;;;23.92;21.27;;;;;;;;;;2066443;28;20809;-58
2021/06/26 02:51:04;;;;;;;24.00;20.85;;;;;;;;;;2072668;28;20181;-57
2021/06/26 02:52:05;;;;;;;23.73;20.83;;;;;;;;;;2073200;28;20177;-59
2021/06/26 02:53:05;;;;;;;24.33;20.63;;;;;;;;;;2071912;28;20220;-56
2021/06/26 02:54:06;;;;;;;23.40;20.85;;;;;;;;;;2072659;28;20209;-58
2021/06/26 02:55:06;;;;;;;23.48;20.98;;;;;;;;;;2073158;28;20605;-60
2021/06/26 02:56:06;;;;;;;25.08;21.50;;;;;;;;;;2073312;28;20168;-59
2021/06/26 02:57:07;;;;;;;26.77;21.33;;;;;;;;;;2073173;28;20276;-58
2021/06/26 02:58:07;;;;;;;24.58;21.77;;;;;;;;;;2073241;28;20169;-58
2021/06/26 02:59:07;;;;;;;25.67;22.20;;;;;;;;;;2073118;28;20623;-58
2021/06/26 03:00:08;;;;;;;25.08;22.02;;;;;;;;;;2072502;28;20243;-59
2021/06/26 03:01:09;;;;;;;25.00;22.38;;;;;;;;;;2072002;28;20217;-59
2021/06/26 03:02:09;;;;;;;25.33;22.65;;;;;;;;;;2072387;28;20168;-58
2021/06/26 03:03:09;;;;;;;27.85;21.90;;;;;;;;;;2072453;28;20239;-56
2021/06/26 03:04:09;;;;;;;24.23;21.73;;;;;;;;;;2073128;28;20183;-58
2021/06/26 03:05:10;;;;;;;24.27;21.23;;;;;;;;;;2073156;28;20165;-58
2021/06/26 03:06:10;;;;;;;25.55;22.65;;;;;;;;;;2073092;28;20161;-58
2021/06/26 03:07:10;;;;;;;25.80;22.50;;;;;;;;;;2073238;28;20272;-57
2021/06/26 03:08:11;;;;;;;25.85;21.92;;;;;;;;;;2073054;28;20538;-58
2021/06/26 03:09:11;;;;;;;24.33;21.70;;;;;;;;;;2073291;28;20177;-55
2021/06/26 03:10:11;;;;;;;26.67;22.55;;;;;;;;;;2072341;28;20176;-59
2021/06/26 03:11:11;;;;;;;25.63;22.55;;;;;;;;;;2072163;28;20165;-59
2021/06/26 03:12:12;;;;;;;28.80;23.73;;;;;;;;;;2072432;28;20191;-58
2021/06/26 03:13:12;;;;;;;25.35;21.17;;;;;;;;;;2072535;28;20236;-57
2021/06/26 03:14:12;;;;;;;23.63;21.05;;;;;;;;;;2065175;28;20196;-58
2021/06/26 03:15:13;;;;;;;25.35;22.58;;;;;;;;;;2068093;28;20177;-59
2021/06/26 03:16:14;;;;;;;24.67;21.27;;;;;;;;;;2067258;28;20165;-58
2021/06/26 03:17:14;;;;;;;25.85;22.55;;;;;;;;;;2068036;28;20178;-60
2021/06/26 03:18:14;;;;;;;26.30;22.98;;;;;;;;;;2064838;28;20172;-60
2021/06/26 03:19:15;;;;;;;23.75;21.30;;;;;;;;;;2068616;28;20177;-60
2021/06/26 03:20:15;;;;;;;26.70;22.80;;;;;;;;;;2068830;28;20215;-59
2021/06/26 03:21:15;;;;;;;27.20;22.75;;;;;;;;;;2067155;28;20251;-59
2021/06/26 03:22:16;;;;;;;25.05;21.50;;;;;;;;;;2064589;28;20193;-58
2021/06/26 03:23:16;;;;;;;24.83;21.67;;;;;;;;;;2069360;28;20287;-58
2021/06/26 03:24:16;;;;;;;24.92;21.77;;;;;;;;;;2068594;28;20525;-56
2021/06/26 03:25:16;;;;;;;25.63;22.77;;;;;;;;;;2065761;28;20164;-59
2021/06/26 03:26:17;;;;;;;28.23;23.27;;;;;;;;;;2068044;28;20224;-59
2021/06/26 03:27:17;;;;;;;27.40;22.65;;;;;;;;;;2067292;28;20276;-58
2021/06/26 03:28:17;;;;;;;24.83;21.90;;;;;;;;;;2070427;28;20549;-58
2021/06/26 03:29:17;;;;;;;27.05;23.17;;;;;;;;;;2074233;28;20264;-59
2021/06/26 03:30:18;;;;;;;26.80;22.77;;;;;;;;;;2068669;28;20750;-59
2021/06/26 03:31:18;;;;;;;25.73;22.23;;;;;;;;;;2066703;28;20641;-58
2021/06/26 03:32:18;;;;;;;25.17;22.20;;;;;;;;;;2069109;28;20556;-59
2021/06/26 03:33:19;;;;;;;25.90;22.52;;;;;;;;;;2070542;28;20188;-59
2021/06/26 03:34:19;;;;;;;25.45;22.80;;;;;;;;;;2066607;28;20174;-59
2021/06/26 03:35:19;;;;;;;26.58;22.90;;;;;;;;;;2066839;28;20539;-59
2021/06/26 03:36:19;;;;;;;26.90;23.15;;;;;;;;;;2065903;28;20485;-56
2021/06/26 03:37:20;;;;;;;28.58;25.10;;;;;;;;;;2067418;28;20212;-58
2021/06/26 03:38:20;;;;;;;26.70;22.95;;;;;;;;;;2069143;28;20705;-57
2021/06/26 03:39:20;;;;;;;27.80;24.80;;;;;;;;;;2062792;28;20209;-57
2021/06/26 03:40:21;;;;;;;30.17;24.90;;;;;;;;;;2068227;28;20177;-58
2021/06/26 03:41:26;;;;;;;26.90;23.83;;;;;;;;;;2068714;28;20600;-58
2021/06/26 03:42:26;;;;;;;27.35;23.45;;;;;;;;;;2071701;28;20201;-58
2021/06/26 03:43:26;;;;;;;25.15;22.30;;;;;;;;;;2068319;28;20194;-55
2021/06/26 03:44:27;;;;;;;27.17;23.73;;;;;;;;;;2068888;28;20173;-59
2021/06/26 03:45:27;;;;;;;26.52;23.38;;;;;;;;;;2067179;28;20275;-59
2021/06/26 03:46:27;;;;;;;27.55;24.08;;;;;;;;;;2071485;28;20173;-59
2021/06/26 03:47:28;;;;;;;26.63;23.83;;;;;;;;;;2067564;28;20300;-59
2021/06/26 03:48:28;;;;;;;27.70;23.25;;;;;;;;;;2071050;28;20257;-61
2021/06/26 03:49:32;;;;;;;28.83;24.58;;;;;;;;;;2057250;28;20176;-58
2021/06/26 03:50:34;;;;;;;28.70;24.05;;;;;;;;;;2070910;28;20592;-59
2021/06/26 03:51:34;;;;;;;27.67;23.55;;;;;;;;;;2063933;28;20524;-58
2021/06/26 03:52:35;;;;;;;28.35;23.85;;;;;;;;;;2065935;28;20200;-56
2021/06/26 03:53:35;;;;;;;26.83;23.15;;;;;;;;;;2063651;28;20205;-58
2021/06/26 03:54:35;;;;;;;28.88;23.65;;;;;;;;;;2072283;28;20165;-59
2021/06/26 03:55:36;;;;;;;28.30;23.02;;;;;;;;;;2062407;28;20178;-57
2021/06/26 03:56:36;;;;;;;26.73;22.85;;;;;;;;;;2071586;28;20180;-59
2021/06/26 03:57:36;;;;;;;27.27;23.17;;;;;;;;;;2066540;28;20616;-59
2021/06/26 03:58:36;;;;;;;27.33;23.25;;;;;;;;;;2073346;28;20176;-57
2021/06/26 03:59:37;;;;;;;25.33;22.42;;;;;;;;;;2061615;28;20181;-59
2021/06/26 04:00:37;;;;;;;25.58;22.25;;;;;;;;;;2072792;28;20165;-58
2021/06/26 04:01:37;;;;;;;25.15;22.33;;;;;;;;;;2066035;28;20557;-59
2021/06/26 04:02:37;;;;;;;25.05;22.40;;;;;;;;;;2072744;28;20576;-59
2021/06/26 04:03:38;;;;;;;26.67;23.23;;;;;;;;;;2066102;28;20184;-59
2021/06/26 04:04:38;;;;;;;24.83;22.13;;;;;;;;;;2070866;28;20811;-57
2021/06/26 04:05:38;;;;;;;27.75;23.40;;;;;;;;;;2058041;28;20690;-58
2021/06/26 04:06:39;;;;;;;26.55;22.75;;;;;;;;;;2072395;28;20255;-54
2021/06/26 04:07:39;;;;;;;26.45;22.55;;;;;;;;;;2073349;28;20181;-59
2021/06/26 04:08:40;;;;;;;25.80;22.70;;;;;;;;;;2066239;28;20231;-59
2021/06/26 04:09:40;;;;;;;27.83;23.05;;;;;;;;;;2073420;28;20185;-59
2021/06/26 04:10:40;;;;;;;28.48;23.77;;;;;;;;;;2065302;28;20755;-59
2021/06/26 04:11:40;;;;;;;29.20;22.83;;;;;;;;;;2072599;28;20173;-58
2021/06/26 04:12:41;;;;;;;31.42;23.10;;;;;;;;;;2065005;28;20181;-59
2021/06/26 04:13:42;;;;;;;25.25;22.52;;;;;;;;;;2073633;28;20204;-58
2021/06/26 04:14:42;;;;;;;26.25;23.08;;;;;;;;;;2064191;28;20657;-58
2021/06/26 04:15:43;;;;;;;24.23;21.60;;;;;;;;;;2074168;28;20204;-57
2021/06/26 04:16:43;;;;;;;25.55;22.73;;;;;;;;;;2067891;28;20651;-58
2021/06/26 04:17:43;;;;;;;24.92;21.92;;;;;;;;;;2073528;28;20642;-59
2021/06/26 04:18:43;;;;;;;23.92;21.08;;;;;;;;;;2065372;28;20236;-59
2021/06/26 04:19:44;;;;;;;29.08;22.13;;;;;;;;;;2073823;28;20660;-60
2021/06/26 04:20:44;;;;;;;24.60;22.00;;;;;;;;;;2061857;28;20185;-57
2021/06/26 04:21:44;;;;;;;25.83;22.80;;;;;;;;;;2057957;28;20174;-58
2021/06/26 04:22:45;;;;;;;28.52;23.70;;;;;;;;;;2065299;28;20173;-57
2021/06/26 04:23:45;;;;;;;27.83;23.05;;;;;;;;;;2073423;28;20185;-59
2021/06/26 04:24:46;;;;;;;28.85;23.73;;;;;;;;;;2061268;28;20197;-59
2021/06/26 04:25:47;;;;;;;26.52;22.45;;;;;;;;;;2074154;28;20207;-58
2021/06/26 04:26:47;;;;;;;28.83;22.67;;;;;;;;;;2060925;28;20215;-59
2021/06/26 04:27:47;;;;;;;26.00;22.67;;;;;;;;;;2073838;28;20186;-58
2021/06/26 04:28:48;;;;;;;26.17;23.38;;;;;;;;;;2061053;28;20182;-58
2021/06/26 04:29:48;;;;;;;26.55;22.48;;;;;;;;;;2073787;28;20165;-58
2021/06/26 04:30:48;;;;;;;27.33;23.45;;;;;;;;;;2060581;28;20276;-58
2021/06/26 04:31:49;;;;;;;28.98;24.02;;;;;;;;;;2073266;28;20197;-58
2021/06/26 04:32:49;;;;;;;26.10;22.33;;;;;;;;;;2066172;28;20596;-54
2021/06/26 04:33:50;;;;;;;26.00;23.13;;;;;;;;;;2072780;28;20193;-54
2021/06/26 04:34:50;;;;;;;26.27;22.80;;;;;;;;;;2051561;28;20187;-56
2021/06/26 04:35:50;;;;;;;24.60;21.92;;;;;;;;;;2072619;28;20181;-56
2021/06/26 04:36:51;;;;;;;26.52;22.65;;;;;;;;;;2059882;28;20173;-55
2021/06/26 04:37:51;;;;;;;27.40;23.13;;;;;;;;;;2071950;28;20168;-55
2021/06/26 04:38:52;;;;;;;25.75;21.80;;;;;;;;;;2059080;28;20202;-55
2021/06/26 04:39:52;;;;;;;27.10;23.40;;;;;;;;;;2072247;28;20201;-56
2021/06/26 04:40:53;;;;;;;30.88;24.02;;;;;;;;;;2065300;28;20742;-55
2021/06/26 04:41:53;;;;;;;27.58;23.98;;;;;;;;;;2066917;28;20253;-57
2021/06/26 04:42:53;;;;;;;25.10;22.40;;;;;;;;;;2072279;28;20324;-56
2021/06/26 04:43:54;;;;;;;28.20;23.63;;;;;;;;;;2065264;28;20634;-55
2021/06/26 04:44:54;;;;;;;28.35;23.30;;;;;;;;;;2067288;28;20701;-53
2021/06/26 04:45:54;;;;;;;27.23;23.77;;;;;;;;;;2071949;28;20183;-57
2021/06/26 04:46:55;;;;;;;29.10;23.38;;;;;;;;;;2066224;28;20638;-57
2021/06/26 04:48:00;;;;;;;27.80;24.63;;;;;;;;;;2071114;28;20260;-56
2021/06/26 04:49:00;;;;;;;27.20;23.95;;;;;;;;;;2068248;28;20312;-58
2021/06/26 04:50:00;;;;;;;27.45;23.42;;;;;;;;;;2069286;28;20269;-57
2021/06/26 04:51:01;;;;;;;27.50;22.52;;;;;;;;;;2061690;28;20209;-58
2021/06/26 04:52:02;;;;;;;26.70;23.48;;;;;;;;;;2070288;28;20230;-56
2021/06/26 04:54:13;;;;;;;25.20;22.08;;;;;;;;;;2060959;28;20237;-64
2021/06/26 04:55:14;;;;;;;30.80;23.33;;;;;;;;;;2068697;28;20185;-64
2021/06/26 04:56:14;;;;;;;28.45;23.55;;;;;;;;;;2070024;28;20181;-63
2021/06/26 04:57:14;;;;;;;29.58;24.80;;;;;;;;;;2074112;28;20728;-64
2021/06/26 04:58:14;;;;;;;28.77;25.65;;;;;;;;;;2071513;28;20256;-64
2021/06/26 04:59:15;;;;;;;28.80;25.63;;;;;;;;;;2073593;28;20219;-64
2021/06/26 05:00:15;;;;;;;30.45;26.58;;;;;;;;;;2069913;28;20192;-64
2021/06/26 05:01:16;;;;;;;33.50;29.75;;;;;;;;;;2067912;28;20617;-64
2021/06/26 05:02:16;;;;;;;29.10;24.05;;;;;;;;;;2068591;28;20600;-65
2021/06/26 05:03:20;;;;;;;29.75;24.10;;;;;;;;;;2069565;28;20183;-65
2021/06/26 05:04:21;;;;;;;29.83;24.35;;;;;;;;;;2070301;28;20181;-65
2021/06/26 05:05:21;;;;;;;32.38;27.70;;;;;;;;;;2067944;28;20169;-66
2021/06/26 05:06:21;;;;;;;31.38;25.15;;;;;;;;;;2066633;28;20248;-66
2021/06/26 05:07:22;;;;;;;29.95;23.55;;;;;;;;;;2066731;28;20201;-66
2021/06/26 05:08:22;;;;;;;27.08;24.15;;;;;;;;;;2066931;28;20177;-64
2021/06/26 05:09:22;;;;;;;30.58;25.85;;;;;;;;;;2067555;28;20165;-65
2021/06/26 05:10:23;;;;;;;27.05;23.95;;;;;;;;;;2068134;28;20182;-65
2021/06/26 05:11:24;;;;;;;25.60;22.77;;;;;;;;;;2070947;28;20189;-68
2021/06/26 05:12:24;;;;;;;31.95;26.45;;;;;;;;;;2067413;28;20199;-67
2021/06/26 05:13:24;;;;;;;30.17;26.42;;;;;;;;;;2069366;28;20695;-69
2021/06/26 05:14:25;;;;;;;26.23;23.42;;;;;;;;;;2067575;28;20239;-64
2021/06/26 05:15:27;;;;;;;27.15;23.30;;;;;;;;;;2070360;28;20180;-66
2021/06/26 05:16:27;;;;;;;28.65;24.52;;;;;;;;;;2069836;28;20305;-65
2021/06/26 05:17:28;;;;;;;27.13;22.60;;;;;;;;;;2067197;28;20186;-65
2021/06/26 05:18:28;;;;;;;27.05;24.17;;;;;;;;;;2068066;28;20244;-66
2021/06/26 05:19:29;;;;;;;31.63;27.27;;;;;;;;;;2065083;28;20189;-66
2021/06/26 05:20:29;;;;;;;27.20;23.80;;;;;;;;;;2064244;28;20217;-65
2021/06/26 05:21:29;;;;;;;26.02;21.83;;;;;;;;;;2065876;28;20561;-65
2021/06/26 05:22:30;;;;;;;30.88;25.90;;;;;;;;;;2070073;28;20712;-65
2021/06/26 05:23:30;;;;;;;26.60;23.73;;;;;;;;;;2061615;28;20221;-65
2021/06/26 05:24:30;;;;;;;36.78;29.67;;;;;;;;;;2069208;28;20552;-65
2021/06/26 05:25:30;;;;;;;27.70;23.35;;;;;;;;;;2066378;28;20174;-65
2021/06/26 05:26:31;;;;;;;26.42;23.52;;;;;;;;;;2071705;28;20169;-65
2021/06/26 05:27:31;;;;;;;32.17;23.52;;;;;;;;;;2071594;28;20195;-65
2021/06/26 05:28:31;;;;;;;26.80;23.65;;;;;;;;;;2062980;28;20202;-65
2021/06/26 05:29:33;;;;;;;26.52;23.25;;;;;;;;;;2062738;28;20181;-65
2021/06/26 05:30:33;;;;;;;26.63;22.63;;;;;;;;;;2070677;28;20169;-64
2021/06/26 05:31:33;;;;;;;26.38;22.60;;;;;;;;;;2066393;28;20546;-65
2021/06/26 05:32:34;;;;;;;28.75;25.60;;;;;;;;;;2072276;28;20176;-65
2021/06/26 05:33:34;;;;;;;35.28;28.75;;;;;;;;;;2065924;28;20201;-65
2021/06/26 05:34:34;;;;;;;25.58;22.63;;;;;;;;;;2064566;28;20198;-65
2021/06/26 05:35:35;;;;;;;30.98;27.10;;;;;;;;;;2062343;28;20199;-65
2021/06/26 05:36:35;;;;;;;25.67;22.45;;;;;;;;;;2072198;28;20630;-65
2021/06/26 05:37:36;;;;;;;26.65;23.45;;;;;;;;;;2052363;28;20248;-68
2021/06/26 05:38:36;;;;;;;28.13;21.65;;;;;;;;;;2064627;28;20701;-64
2021/06/26 05:39:36;;;;;;;32.60;26.67;;;;;;;;;;2072800;28;20173;-64
2021/06/26 05:40:37;;;;;;;29.02;24.88;;;;;;;;;;2066041;28;20311;-64
2021/06/26 05:41:37;;;;;;;27.98;23.30;;;;;;;;;;2071776;28;20180;-66
2021/06/26 05:42:37;;;;;;;29.58;24.17;;;;;;;;;;2066020;28;20165;-65
2021/06/26 05:43:37;;;;;;;26.05;23.25;;;;;;;;;;2066225;28;20212;-65
2021/06/26 05:44:38;;;;;;;25.50;22.75;;;;;;;;;;2072246;28;20272;-65
2021/06/26 05:45:39;;;;;;;27.20;23.15;;;;;;;;;;2065415;28;20216;-66
2021/06/26 05:46:40;;;;;;;28.42;22.73;;;;;;;;;;2063786;28;20185;-64
2021/06/26 05:47:40;;;;;;;23.48;20.88;;;;;;;;;;2056903;28;20190;-64
2021/06/26 05:48:40;;;;;;;28.60;22.83;;;;;;;;;;2072440;28;20172;-64
2021/06/26 05:49:40;;;;;;;25.00;21.70;;;;;;;;;;2064657;28;20670;-65
2021/06/26 05:50:41;;;;;;;29.50;22.85;;;;;;;;;;2055849;28;20228;-64
2021/06/26 05:51:41;;;;;;;31.80;23.75;;;;;;;;;;2049067;28;20186;-65
2021/06/26 05:52:45;;;;;;;26.65;23.77;;;;;;;;;;2067148;28;20181;-66